sensor_id;sensor_type;location;lat;lon;timestamp;P1;durP1;ratioP1;P2;durP2;ratioP2
495;SDS011;39559;48.630;9.162;2022-12-18T11:40:18;38.25;;;25.95;;
495;SDS011;39559;48.630;9.162;2022-12-18T11:50:25;36.33;;;25.63;;
495;SDS011;39559;48.630;9.162;2022-12-18T11:52:54;36.25;;;25.50;;
495;SDS011;39559;48.630;9.162;2022-12-18T12:04:41;37.03;;;25.40;;
495;SDS011;39559;48.630;9.162;2022-12-18T12:18:19;39.90;;;26.17;;
495;SDS011;39559;48.630;9.162;2022-12-18T12:38:55;38.65;;;23.70;;
495;SDS011;39559;48.630;9.162;2022-12-18T12:41:25;38.55;;;23.27;;
495;SDS011;39559;48.630;9.162;2022-12-18T12:44:38;40.33;;;23.80;;
495;SDS011;39559;48.630;9.162;2022-12-18T12:47:16;40.08;;;23.00;;
495;SDS011;39559;48.630;9.162;2022-12-18T12:49:47;37.88;;;22.83;;
495;SDS011;39559;48.630;9.162;2022-12-18T12:52:35;41.00;;;23.50;;
495;SDS011;39559;48.630;9.162;2022-12-18T12:55:19;38.78;;;21.42;;
495;SDS011;39559;48.630;9.162;2022-12-18T13:00:47;35.80;;;21.75;;
495;SDS011;39559;48.630;9.162;2022-12-18T13:03:45;39.10;;;22.95;;
495;SDS011;39559;48.630;9.162;2022-12-18T13:09:36;36.20;;;23.10;;
495;SDS011;39559;48.630;9.162;2022-12-18T13:12:37;40.25;;;23.70;;
495;SDS011;39559;48.630;9.162;2022-12-18T13:16:38;40.65;;;25.58;;
495;SDS011;39559;48.630;9.162;2022-12-18T13:19:18;41.63;;;23.33;;
495;SDS011;39559;48.630;9.162;2022-12-18T13:21:52;42.45;;;25.38;;
495;SDS011;39559;48.630;9.162;2022-12-18T13:24:26;42.50;;;26.27;;
495;SDS011;39559;48.630;9.162;2022-12-18T13:26:55;41.22;;;22.80;;
495;SDS011;39559;48.630;9.162;2022-12-18T13:32:24;40.00;;;22.63;;
495;SDS011;39559;48.630;9.162;2022-12-18T13:37:54;45.65;;;23.08;;
495;SDS011;39559;48.630;9.162;2022-12-18T13:51:41;40.45;;;23.08;;
495;SDS011;39559;48.630;9.162;2022-12-18T13:54:30;39.85;;;24.10;;
495;SDS011;39559;48.630;9.162;2022-12-18T13:57:00;37.42;;;20.77;;
495;SDS011;39559;48.630;9.162;2022-12-18T13:59:33;36.60;;;21.92;;
495;SDS011;39559;48.630;9.162;2022-12-18T14:02:04;34.88;;;20.60;;
495;SDS011;39559;48.630;9.162;2022-12-18T14:04:48;35.33;;;20.95;;
495;SDS011;39559;48.630;9.162;2022-12-18T14:07:15;34.08;;;20.60;;
495;SDS011;39559;48.630;9.162;2022-12-18T14:09:45;39.92;;;21.52;;
495;SDS011;39559;48.630;9.162;2022-12-18T14:12:32;38.25;;;21.60;;
495;SDS011;39559;48.630;9.162;2022-12-18T14:17:57;33.95;;;21.58;;
495;SDS011;39559;48.630;9.162;2022-12-18T14:20:25;36.88;;;21.83;;
495;SDS011;39559;48.630;9.162;2022-12-18T14:22:52;35.65;;;20.92;;
495;SDS011;39559;48.630;9.162;2022-12-18T14:25:20;41.77;;;22.10;;
495;SDS011;39559;48.630;9.162;2022-12-18T14:28:53;40.53;;;21.30;;
495;SDS011;39559;48.630;9.162;2022-12-18T14:31:27;36.80;;;20.70;;
495;SDS011;39559;48.630;9.162;2022-12-18T14:33:55;35.47;;;20.73;;
495;SDS011;39559;48.630;9.162;2022-12-18T14:36:25;34.88;;;19.60;;
495;SDS011;39559;48.630;9.162;2022-12-18T14:38:53;34.50;;;19.08;;
495;SDS011;39559;48.630;9.162;2022-12-18T14:41:20;33.45;;;19.85;;
495;SDS011;39559;48.630;9.162;2022-12-18T14:43:51;35.55;;;19.40;;
495;SDS011;39559;48.630;9.162;2022-12-18T14:52:58;34.55;;;18.98;;
495;SDS011;39559;48.630;9.162;2022-12-18T14:55:23;40.50;;;20.43;;
495;SDS011;39559;48.630;9.162;2022-12-18T14:57:50;32.30;;;19.00;;
495;SDS011;39559;48.630;9.162;2022-12-18T15:00:19;40.70;;;21.50;;
495;SDS011;39559;48.630;9.162;2022-12-18T15:02:48;36.10;;;19.05;;
495;SDS011;39559;48.630;9.162;2022-12-18T15:07:54;36.30;;;19.20;;
495;SDS011;39559;48.630;9.162;2022-12-18T15:10:22;30.67;;;19.38;;
495;SDS011;39559;48.630;9.162;2022-12-18T15:17:18;32.72;;;18.05;;
495;SDS011;39559;48.630;9.162;2022-12-18T15:19:47;34.83;;;19.42;;
495;SDS011;39559;48.630;9.162;2022-12-18T15:22:22;31.50;;;17.17;;
495;SDS011;39559;48.630;9.162;2022-12-18T15:24:50;34.70;;;18.73;;
495;SDS011;39559;48.630;9.162;2022-12-18T15:27:20;36.50;;;19.42;;
495;SDS011;39559;48.630;9.162;2022-12-18T15:32:39;34.83;;;17.98;;
495;SDS011;39559;48.630;9.162;2022-12-18T15:37:39;32.90;;;18.88;;
495;SDS011;39559;48.630;9.162;2022-12-18T15:41:13;37.10;;;19.10;;
495;SDS011;39559;48.630;9.162;2022-12-18T15:43:40;35.97;;;18.98;;
495;SDS011;39559;48.630;9.162;2022-12-18T15:46:09;37.13;;;20.38;;
495;SDS011;39559;48.630;9.162;2022-12-18T15:48:41;36.83;;;18.00;;
495;SDS011;39559;48.630;9.162;2022-12-18T15:51:11;38.33;;;19.52;;
495;SDS011;39559;48.630;9.162;2022-12-18T15:53:41;38.10;;;19.98;;
495;SDS011;39559;48.630;9.162;2022-12-18T15:56:11;33.88;;;18.60;;
495;SDS011;39559;48.630;9.162;2022-12-18T15:58:56;35.88;;;19.10;;
495;SDS011;39559;48.630;9.162;2022-12-18T16:01:26;37.42;;;19.92;;
495;SDS011;39559;48.630;9.162;2022-12-18T16:05:13;41.05;;;20.10;;
495;SDS011;39559;48.630;9.162;2022-12-18T16:07:40;36.25;;;18.55;;
495;SDS011;39559;48.630;9.162;2022-12-18T16:10:06;37.13;;;18.20;;
495;SDS011;39559;48.630;9.162;2022-12-18T16:12:32;33.15;;;17.55;;
495;SDS011;39559;48.630;9.162;2022-12-18T16:14:57;32.27;;;18.60;;
495;SDS011;39559;48.630;9.162;2022-12-18T16:17:23;37.77;;;21.80;;
495;SDS011;39559;48.630;9.162;2022-12-18T16:19:48;36.13;;;20.10;;
495;SDS011;39559;48.630;9.162;2022-12-18T16:22:17;31.73;;;18.30;;
495;SDS011;39559;48.630;9.162;2022-12-18T16:24:47;32.67;;;17.58;;
495;SDS011;39559;48.630;9.162;2022-12-18T16:29:15;35.75;;;17.70;;
495;SDS011;39559;48.630;9.162;2022-12-18T16:31:41;33.73;;;19.00;;
495;SDS011;39559;48.630;9.162;2022-12-18T16:34:40;32.20;;;17.13;;
495;SDS011;39559;48.630;9.162;2022-12-18T16:37:00;40.70;;;20.20;;
495;SDS011;39559;48.630;9.162;2022-12-18T16:39:27;31.73;;;16.48;;
495;SDS011;39559;48.630;9.162;2022-12-18T16:41:53;38.08;;;18.52;;
495;SDS011;39559;48.630;9.162;2022-12-18T16:44:21;39.93;;;19.20;;
495;SDS011;39559;48.630;9.162;2022-12-18T16:46:53;35.80;;;17.17;;
495;SDS011;39559;48.630;9.162;2022-12-18T16:49:18;40.38;;;18.60;;
495;SDS011;39559;48.630;9.162;2022-12-18T16:53:19;35.40;;;17.90;;
495;SDS011;39559;48.630;9.162;2022-12-18T16:55:45;31.20;;;18.03;;
495;SDS011;39559;48.630;9.162;2022-12-18T16:58:20;39.50;;;22.65;;
495;SDS011;39559;48.630;9.162;2022-12-18T17:00:45;34.13;;;19.43;;
495;SDS011;39559;48.630;9.162;2022-12-18T17:03:11;31.53;;;17.63;;
495;SDS011;39559;48.630;9.162;2022-12-18T17:05:36;31.87;;;17.90;;
495;SDS011;39559;48.630;9.162;2022-12-18T17:08:02;34.20;;;17.57;;
495;SDS011;39559;48.630;9.162;2022-12-18T17:10:27;30.80;;;18.37;;
495;SDS011;39559;48.630;9.162;2022-12-18T17:12:52;37.07;;;23.73;;
495;SDS011;39559;48.630;9.162;2022-12-18T17:17:24;41.88;;;20.85;;
495;SDS011;39559;48.630;9.162;2022-12-18T17:19:50;39.93;;;21.83;;
495;SDS011;39559;48.630;9.162;2022-12-18T17:22:16;36.88;;;20.25;;
495;SDS011;39559;48.630;9.162;2022-12-18T17:24:42;35.00;;;19.80;;
495;SDS011;39559;48.630;9.162;2022-12-18T17:27:07;37.37;;;21.23;;
495;SDS011;39559;48.630;9.162;2022-12-18T17:29:33;42.57;;;22.60;;
495;SDS011;39559;48.630;9.162;2022-12-18T17:31:58;47.40;;;24.30;;
495;SDS011;39559;48.630;9.162;2022-12-18T17:34:24;41.40;;;21.40;;
495;SDS011;39559;48.630;9.162;2022-12-18T17:36:49;38.70;;;22.97;;
495;SDS011;39559;48.630;9.162;2022-12-18T17:41:28;37.30;;;22.08;;
495;SDS011;39559;48.630;9.162;2022-12-18T17:43:55;40.15;;;20.95;;
495;SDS011;39559;48.630;9.162;2022-12-18T17:46:23;37.85;;;22.08;;
495;SDS011;39559;48.630;9.162;2022-12-18T17:48:50;39.47;;;21.33;;
495;SDS011;39559;48.630;9.162;2022-12-18T17:51:16;44.25;;;22.35;;
495;SDS011;39559;48.630;9.162;2022-12-18T17:53:42;38.60;;;21.55;;
495;SDS011;39559;48.630;9.162;2022-12-18T17:56:09;42.63;;;23.50;;
495;SDS011;39559;48.630;9.162;2022-12-18T17:58:37;46.25;;;24.27;;
495;SDS011;39559;48.630;9.162;2022-12-18T18:01:04;40.63;;;23.98;;
495;SDS011;39559;48.630;9.162;2022-12-18T18:05:30;37.17;;;20.70;;
495;SDS011;39559;48.630;9.162;2022-12-18T18:07:56;38.50;;;21.63;;
495;SDS011;39559;48.630;9.162;2022-12-18T18:10:21;50.87;;;23.17;;
495;SDS011;39559;48.630;9.162;2022-12-18T18:12:47;36.40;;;22.07;;
495;SDS011;39559;48.630;9.162;2022-12-18T18:15:31;42.38;;;23.65;;
495;SDS011;39559;48.630;9.162;2022-12-18T18:17:56;48.90;;;24.80;;
495;SDS011;39559;48.630;9.162;2022-12-18T18:20:22;44.33;;;23.63;;
495;SDS011;39559;48.630;9.162;2022-12-18T18:22:48;39.33;;;22.17;;
495;SDS011;39559;48.630;9.162;2022-12-18T18:25:13;35.50;;;20.67;;
495;SDS011;39559;48.630;9.162;2022-12-18T18:29:37;40.60;;;21.40;;
495;SDS011;39559;48.630;9.162;2022-12-18T18:32:02;38.20;;;20.87;;
495;SDS011;39559;48.630;9.162;2022-12-18T18:34:29;35.47;;;20.77;;
495;SDS011;39559;48.630;9.162;2022-12-18T18:36:59;40.65;;;22.48;;
495;SDS011;39559;48.630;9.162;2022-12-18T18:39:25;35.83;;;21.25;;
495;SDS011;39559;48.630;9.162;2022-12-18T18:41:51;38.90;;;21.37;;
495;SDS011;39559;48.630;9.162;2022-12-18T18:44:18;41.17;;;22.95;;
495;SDS011;39559;48.630;9.162;2022-12-18T18:46:47;45.03;;;25.83;;
495;SDS011;39559;48.630;9.162;2022-12-18T18:49:13;47.97;;;27.47;;
495;SDS011;39559;48.630;9.162;2022-12-18T18:53:42;50.15;;;29.73;;
495;SDS011;39559;48.630;9.162;2022-12-18T18:56:10;52.90;;;30.83;;
495;SDS011;39559;48.630;9.162;2022-12-18T18:58:37;58.13;;;35.72;;
495;SDS011;39559;48.630;9.162;2022-12-18T19:01:04;56.42;;;32.92;;
495;SDS011;39559;48.630;9.162;2022-12-18T19:03:51;70.90;;;33.92;;
495;SDS011;39559;48.630;9.162;2022-12-18T19:06:18;69.95;;;37.13;;
495;SDS011;39559;48.630;9.162;2022-12-18T19:08:48;71.45;;;42.20;;
495;SDS011;39559;48.630;9.162;2022-12-18T19:11:14;63.95;;;38.42;;
495;SDS011;39559;48.630;9.162;2022-12-18T19:13:59;72.95;;;40.47;;
495;SDS011;39559;48.630;9.162;2022-12-18T19:17:45;72.00;;;43.33;;
495;SDS011;39559;48.630;9.162;2022-12-18T19:20:11;78.30;;;47.33;;
495;SDS011;39559;48.630;9.162;2022-12-18T19:22:36;82.70;;;49.83;;
495;SDS011;39559;48.630;9.162;2022-12-18T19:25:02;78.60;;;45.10;;
495;SDS011;39559;48.630;9.162;2022-12-18T19:27:28;65.80;;;38.63;;
495;SDS011;39559;48.630;9.162;2022-12-18T19:29:53;64.87;;;39.33;;
495;SDS011;39559;48.630;9.162;2022-12-18T19:32:19;67.57;;;36.47;;
495;SDS011;39559;48.630;9.162;2022-12-18T19:34:44;53.97;;;34.60;;
495;SDS011;39559;48.630;9.162;2022-12-18T19:37:10;56.87;;;34.90;;
495;SDS011;39559;48.630;9.162;2022-12-18T19:41:50;65.10;;;34.60;;
495;SDS011;39559;48.630;9.162;2022-12-18T19:44:16;57.65;;;34.88;;
495;SDS011;39559;48.630;9.162;2022-12-18T19:46:42;63.60;;;36.00;;
495;SDS011;39559;48.630;9.162;2022-12-18T19:49:10;61.33;;;35.53;;
495;SDS011;39559;48.630;9.162;2022-12-18T19:51:36;57.13;;;36.25;;
495;SDS011;39559;48.630;9.162;2022-12-18T19:54:02;70.65;;;36.47;;
495;SDS011;39559;48.630;9.162;2022-12-18T19:56:29;58.80;;;33.50;;
495;SDS011;39559;48.630;9.162;2022-12-18T19:58:56;62.60;;;33.17;;
495;SDS011;39559;48.630;9.162;2022-12-18T20:01:23;57.60;;;33.47;;
495;SDS011;39559;48.630;9.162;2022-12-18T20:05:54;49.17;;;28.35;;
495;SDS011;39559;48.630;9.162;2022-12-18T20:08:19;56.17;;;26.20;;
495;SDS011;39559;48.630;9.162;2022-12-18T20:10:45;45.37;;;25.50;;
495;SDS011;39559;48.630;9.162;2022-12-18T20:13:15;63.15;;;32.55;;
495;SDS011;39559;48.630;9.162;2022-12-18T20:15:41;55.40;;;32.10;;
495;SDS011;39559;48.630;9.162;2022-12-18T20:18:08;52.43;;;29.20;;
495;SDS011;39559;48.630;9.162;2022-12-18T20:20:34;49.63;;;26.20;;
495;SDS011;39559;48.630;9.162;2022-12-18T20:23:00;52.53;;;28.48;;
495;SDS011;39559;48.630;9.162;2022-12-18T20:25:25;52.17;;;26.87;;
495;SDS011;39559;48.630;9.162;2022-12-18T20:29:58;41.90;;;25.17;;
495;SDS011;39559;48.630;9.162;2022-12-18T20:32:24;43.13;;;25.73;;
495;SDS011;39559;48.630;9.162;2022-12-18T20:34:49;43.77;;;27.07;;
495;SDS011;39559;48.630;9.162;2022-12-18T20:37:15;44.07;;;25.73;;
495;SDS011;39559;48.630;9.162;2022-12-18T20:39:40;47.00;;;25.37;;
495;SDS011;39559;48.630;9.162;2022-12-18T20:42:06;49.63;;;26.87;;
495;SDS011;39559;48.630;9.162;2022-12-18T20:44:31;44.80;;;25.70;;
495;SDS011;39559;48.630;9.162;2022-12-18T20:46:57;42.27;;;25.03;;
495;SDS011;39559;48.630;9.162;2022-12-18T20:49:25;48.75;;;26.95;;
495;SDS011;39559;48.630;9.162;2022-12-18T20:54:03;49.45;;;28.65;;
495;SDS011;39559;48.630;9.162;2022-12-18T20:56:28;52.17;;;31.37;;
495;SDS011;39559;48.630;9.162;2022-12-18T20:58:58;52.83;;;29.20;;
495;SDS011;39559;48.630;9.162;2022-12-18T21:01:25;58.30;;;32.22;;
495;SDS011;39559;48.630;9.162;2022-12-18T21:03:51;51.35;;;31.17;;
495;SDS011;39559;48.630;9.162;2022-12-18T21:06:19;49.30;;;31.02;;
495;SDS011;39559;48.630;9.162;2022-12-18T21:08:47;62.83;;;34.78;;
495;SDS011;39559;48.630;9.162;2022-12-18T21:14:03;62.80;;;35.22;;
495;SDS011;39559;48.630;9.162;2022-12-18T21:18:07;72.25;;;40.60;;
495;SDS011;39559;48.630;9.162;2022-12-18T21:20:33;61.00;;;35.87;;
495;SDS011;39559;48.630;9.162;2022-12-18T21:22:58;50.10;;;31.63;;
495;SDS011;39559;48.630;9.162;2022-12-18T21:25:26;58.47;;;30.38;;
495;SDS011;39559;48.630;9.162;2022-12-18T21:27:52;53.97;;;31.02;;
495;SDS011;39559;48.630;9.162;2022-12-18T21:30:18;53.80;;;30.50;;
495;SDS011;39559;48.630;9.162;2022-12-18T21:32:44;50.63;;;29.87;;
495;SDS011;39559;48.630;9.162;2022-12-18T21:35:09;51.33;;;29.20;;
495;SDS011;39559;48.630;9.162;2022-12-18T21:37:35;44.47;;;28.87;;
495;SDS011;39559;48.630;9.162;2022-12-18T21:42:11;52.00;;;28.05;;
495;SDS011;39559;48.630;9.162;2022-12-18T21:44:55;53.13;;;29.75;;
495;SDS011;39559;48.630;9.162;2022-12-18T21:47:20;59.27;;;30.27;;
495;SDS011;39559;48.630;9.162;2022-12-18T21:49:46;51.90;;;29.90;;
495;SDS011;39559;48.630;9.162;2022-12-18T21:52:12;53.80;;;28.52;;
495;SDS011;39559;48.630;9.162;2022-12-18T21:54:38;48.77;;;28.63;;
495;SDS011;39559;48.630;9.162;2022-12-18T21:57:04;50.20;;;27.87;;
495;SDS011;39559;48.630;9.162;2022-12-18T22:01:59;50.93;;;29.97;;
495;SDS011;39559;48.630;9.162;2022-12-18T22:06:16;47.17;;;29.85;;
495;SDS011;39559;48.630;9.162;2022-12-18T22:08:41;45.77;;;26.73;;
495;SDS011;39559;48.630;9.162;2022-12-18T22:11:07;51.73;;;30.97;;
495;SDS011;39559;48.630;9.162;2022-12-18T22:13:35;52.95;;;31.17;;
495;SDS011;39559;48.630;9.162;2022-12-18T22:16:00;47.37;;;28.27;;
495;SDS011;39559;48.630;9.162;2022-12-18T22:18:26;48.50;;;28.43;;
495;SDS011;39559;48.630;9.162;2022-12-18T22:20:59;59.83;;;31.33;;
495;SDS011;39559;48.630;9.162;2022-12-18T22:23:29;52.00;;;30.52;;
495;SDS011;39559;48.630;9.162;2022-12-18T22:25:54;50.20;;;28.43;;
495;SDS011;39559;48.630;9.162;2022-12-18T22:30:20;56.28;;;28.67;;
495;SDS011;39559;48.630;9.162;2022-12-18T22:32:45;59.00;;;31.40;;
495;SDS011;39559;48.630;9.162;2022-12-18T22:35:10;48.67;;;27.43;;
495;SDS011;39559;48.630;9.162;2022-12-18T22:37:36;46.17;;;27.00;;
495;SDS011;39559;48.630;9.162;2022-12-18T22:40:02;47.17;;;29.03;;
495;SDS011;39559;48.630;9.162;2022-12-18T22:42:29;49.70;;;29.02;;
495;SDS011;39559;48.630;9.162;2022-12-18T22:44:55;50.63;;;28.50;;
495;SDS011;39559;48.630;9.162;2022-12-18T22:47:21;49.07;;;28.67;;
495;SDS011;39559;48.630;9.162;2022-12-18T22:49:46;49.57;;;28.43;;
495;SDS011;39559;48.630;9.162;2022-12-18T22:54:24;50.58;;;27.73;;
495;SDS011;39559;48.630;9.162;2022-12-18T22:56:49;47.23;;;28.00;;
495;SDS011;39559;48.630;9.162;2022-12-18T22:59:16;53.53;;;31.23;;
495;SDS011;39559;48.630;9.162;2022-12-18T23:01:44;43.90;;;28.38;;
495;SDS011;39559;48.630;9.162;2022-12-18T23:04:10;49.28;;;27.33;;
495;SDS011;39559;48.630;9.162;2022-12-18T23:06:36;48.33;;;27.27;;
495;SDS011;39559;48.630;9.162;2022-12-18T23:09:02;52.47;;;28.17;;
495;SDS011;39559;48.630;9.162;2022-12-18T23:11:28;54.03;;;31.00;;
495;SDS011;39559;48.630;9.162;2022-12-18T23:13:53;47.30;;;27.53;;
495;SDS011;39559;48.630;9.162;2022-12-18T23:18:28;47.13;;;28.92;;
495;SDS011;39559;48.630;9.162;2022-12-18T23:20:54;48.27;;;28.77;;
495;SDS011;39559;48.630;9.162;2022-12-18T23:23:19;57.70;;;31.60;;
495;SDS011;39559;48.630;9.162;2022-12-18T23:25:45;62.63;;;33.30;;
495;SDS011;39559;48.630;9.162;2022-12-18T23:28:10;51.07;;;30.67;;
495;SDS011;39559;48.630;9.162;2022-12-18T23:30:36;53.47;;;30.83;;
495;SDS011;39559;48.630;9.162;2022-12-18T23:33:04;51.77;;;32.10;;
495;SDS011;39559;48.630;9.162;2022-12-18T23:35:29;53.25;;;29.67;;
495;SDS011;39559;48.630;9.162;2022-12-18T23:37:55;53.43;;;30.70;;
495;SDS011;39559;48.630;9.162;2022-12-18T23:42:32;43.67;;;28.95;;
495;SDS011;39559;48.630;9.162;2022-12-18T23:44:58;44.80;;;26.73;;
495;SDS011;39559;48.630;9.162;2022-12-18T23:47:23;53.80;;;30.00;;
495;SDS011;39559;48.630;9.162;2022-12-18T23:49:49;49.70;;;29.90;;
495;SDS011;39559;48.630;9.162;2022-12-18T23:52:17;51.83;;;30.63;;
495;SDS011;39559;48.630;9.162;2022-12-18T23:54:44;50.03;;;30.75;;
495;SDS011;39559;48.630;9.162;2022-12-18T23:57:10;51.67;;;30.73;;
495;SDS011;39559;48.630;9.162;2022-12-18T23:59:35;55.23;;;31.27;;
